sensor_id;sensor_type;location;lat;lon;timestamp;pressure;altitude;pressure_sealevel;temperature;humidity
74125;BME280;62475;52.192;5.396;2023-02-01T00:00:26;101873.31;;;5.38;100.00
74125;BME280;62475;52.192;5.396;2023-02-01T00:02:51;101869.25;;;5.41;100.00
74125;BME280;62475;52.192;5.396;2023-02-01T00:05:17;101871.50;;;5.44;100.00
74125;BME280;62475;52.192;5.396;2023-02-01T00:07:42;101869.97;;;5.48;100.00
74125;BME280;62475;52.192;5.396;2023-02-01T00:10:07;101866.94;;;5.56;100.00
74125;BME280;62475;52.192;5.396;2023-02-01T00:12:33;101873.91;;;5.63;100.00
74125;BME280;62475;52.192;5.396;2023-02-01T00:14:58;101876.50;;;5.70;100.00
74125;BME280;62475;52.192;5.396;2023-02-01T00:17:24;101869.53;;;5.74;100.00
74125;BME280;62475;52.192;5.396;2023-02-01T00:19:49;101865.50;;;5.76;100.00
74125;BME280;62475;52.192;5.396;2023-02-01T00:22:14;101862.69;;;5.83;100.00
74125;BME280;62475;52.192;5.396;2023-02-01T00:24:40;101865.41;;;5.83;100.00
74125;BME280;62475;52.192;5.396;2023-02-01T00:27:05;101858.50;;;5.80;100.00
74125;BME280;62475;52.192;5.396;2023-02-01T00:29:30;101861.47;;;5.79;100.00
74125;BME280;62475;52.192;5.396;2023-02-01T00:31:55;101868.34;;;5.82;100.00
74125;BME280;62475;52.192;5.396;2023-02-01T00:34:21;101868.72;;;5.85;100.00
74125;BME280;62475;52.192;5.396;2023-02-01T00:36:46;101855.91;;;5.86;100.00
74125;BME280;62475;52.192;5.396;2023-02-01T00:39:11;101862.06;;;5.93;100.00
74125;BME280;62475;52.192;5.396;2023-02-01T00:41:37;101853.88;;;5.93;100.00
74125;BME280;62475;52.192;5.396;2023-02-01T00:44:02;101865.16;;;5.96;100.00
74125;BME280;62475;52.192;5.396;2023-02-01T00:46:28;101865.63;;;5.93;100.00
74125;BME280;62475;52.192;5.396;2023-02-01T00:48:53;101866.13;;;5.90;100.00
74125;BME280;62475;52.192;5.396;2023-02-01T00:51:19;101873.94;;;5.87;100.00
74125;BME280;62475;52.192;5.396;2023-02-01T00:53:45;101862.44;;;5.85;100.00
74125;BME280;62475;52.192;5.396;2023-02-01T00:56:11;101858.06;;;5.84;100.00
74125;BME280;62475;52.192;5.396;2023-02-01T00:58:36;101855.09;;;5.85;100.00
74125;BME280;62475;52.192;5.396;2023-02-01T01:01:07;101876.28;;;5.95;100.00
74125;BME280;62475;52.192;5.396;2023-02-01T01:03:33;101873.22;;;5.91;100.00
74125;BME280;62475;52.192;5.396;2023-02-01T01:05:59;101868.84;;;5.90;100.00
74125;BME280;62475;52.192;5.396;2023-02-01T01:08:25;101790.13;;;5.59;100.00
74125;BME280;62475;52.192;5.396;2023-02-01T01:10:50;101853.53;;;6.01;100.00
74125;BME280;62475;52.192;5.396;2023-02-01T01:13:15;101848.09;;;6.01;100.00
74125;BME280;62475;52.192;5.396;2023-02-01T01:15:40;101836.22;;;6.07;100.00
74125;BME280;62475;52.192;5.396;2023-02-01T01:18:06;101842.59;;;6.12;100.00
74125;BME280;62475;52.192;5.396;2023-02-01T01:20:33;101851.97;;;6.05;100.00
74125;BME280;62475;52.192;5.396;2023-02-01T01:22:59;101850.78;;;6.12;100.00
74125;BME280;62475;52.192;5.396;2023-02-01T01:25:24;101847.91;;;6.19;100.00
74125;BME280;62475;52.192;5.396;2023-02-01T01:27:49;101836.19;;;6.18;100.00
74125;BME280;62475;52.192;5.396;2023-02-01T01:30:14;101839.97;;;6.17;100.00
74125;BME280;62475;52.192;5.396;2023-02-01T01:32:40;101834.38;;;6.24;100.00
74125;BME280;62475;52.192;5.396;2023-02-01T01:35:05;101827.38;;;6.28;100.00
74125;BME280;62475;52.192;5.396;2023-02-01T01:37:31;101833.28;;;6.36;100.00
74125;BME280;62475;52.192;5.396;2023-02-01T01:39:56;101837.81;;;6.31;100.00
74125;BME280;62475;52.192;5.396;2023-02-01T01:42:23;101833.38;;;6.41;100.00
74125;BME280;62475;52.192;5.396;2023-02-01T01:47:40;101834.97;;;6.37;100.00
74125;BME280;62475;52.192;5.396;2023-02-01T01:50:07;101842.16;;;6.43;100.00
74125;BME280;62475;52.192;5.396;2023-02-01T01:52:33;101834.22;;;6.42;100.00
74125;BME280;62475;52.192;5.396;2023-02-01T01:54:59;101833.97;;;6.43;100.00
74125;BME280;62475;52.192;5.396;2023-02-01T01:57:29;101825.44;;;6.40;100.00
74125;BME280;62475;52.192;5.396;2023-02-01T01:59:58;101832.44;;;6.47;100.00
74125;BME280;62475;52.192;5.396;2023-02-01T02:02:26;101722.34;;;5.62;100.00
74125;BME280;62475;52.192;5.396;2023-02-01T02:04:51;101809.25;;;6.50;100.00
74125;BME280;62475;52.192;5.396;2023-02-01T02:07:21;101815.31;;;6.52;100.00
74125;BME280;62475;52.192;5.396;2023-02-01T02:09:48;101815.19;;;6.58;100.00
74125;BME280;62475;52.192;5.396;2023-02-01T02:12:13;101806.16;;;6.58;100.00
74125;BME280;62475;52.192;5.396;2023-02-01T02:14:38;101809.47;;;6.60;100.00
74125;BME280;62475;52.192;5.396;2023-02-01T02:34:46;101796.59;;;6.72;100.00
74125;BME280;62475;52.192;5.396;2023-02-01T02:37:19;101796.59;;;6.72;100.00
74125;BME280;62475;52.192;5.396;2023-02-01T02:48:20;101788.50;;;6.77;100.00
74125;BME280;62475;52.192;5.396;2023-02-01T02:50:57;101774.00;;;6.76;100.00
74125;BME280;62475;52.192;5.396;2023-02-01T02:56:27;101755.16;;;6.75;100.00
74125;BME280;62475;52.192;5.396;2023-02-01T02:59:12;101732.13;;;6.71;100.00
74125;BME280;62475;52.192;5.396;2023-02-01T03:01:58;101747.47;;;6.72;100.00
74125;BME280;62475;52.192;5.396;2023-02-01T03:04:41;101753.19;;;6.70;100.00
74125;BME280;62475;52.192;5.396;2023-02-01T03:07:14;101749.03;;;6.68;100.00
74125;BME280;62475;52.192;5.396;2023-02-01T03:09:41;101739.91;;;6.62;100.00
74125;BME280;62475;52.192;5.396;2023-02-01T03:12:10;101765.06;;;6.64;100.00
74125;BME280;62475;52.192;5.396;2023-02-01T03:14:57;101755.47;;;6.62;100.00
74125;BME280;62475;52.192;5.396;2023-02-01T03:17:27;101749.91;;;6.57;100.00
74125;BME280;62475;52.192;5.396;2023-02-01T03:19:58;101745.78;;;6.54;100.00
74125;BME280;62475;52.192;5.396;2023-02-01T03:22:26;101744.31;;;6.63;100.00
74125;BME280;62475;52.192;5.396;2023-02-01T03:27:29;101747.66;;;6.54;100.00
74125;BME280;62475;52.192;5.396;2023-02-01T03:32:22;101743.00;;;6.38;100.00
74125;BME280;62475;52.192;5.396;2023-02-01T03:34:48;101758.31;;;6.39;100.00
74125;BME280;62475;52.192;5.396;2023-02-01T03:37:14;101761.66;;;6.29;100.00
74125;BME280;62475;52.192;5.396;2023-02-01T03:40:00;101765.13;;;6.25;100.00
74125;BME280;62475;52.192;5.396;2023-02-01T03:42:39;101769.03;;;6.29;100.00
74125;BME280;62475;52.192;5.396;2023-02-01T03:47:33;101753.97;;;6.26;100.00
74125;BME280;62475;52.192;5.396;2023-02-01T03:52:26;101765.56;;;6.33;100.00
74125;BME280;62475;52.192;5.396;2023-02-01T03:54:53;101768.53;;;6.32;100.00
74125;BME280;62475;52.192;5.396;2023-02-01T03:57:21;101747.06;;;6.35;100.00
74125;BME280;62475;52.192;5.396;2023-02-01T03:59:49;101754.91;;;6.32;100.00
74125;BME280;62475;52.192;5.396;2023-02-01T04:02:14;101765.06;;;6.36;100.00
74125;BME280;62475;52.192;5.396;2023-02-01T04:04:39;101759.50;;;6.43;100.00
74125;BME280;62475;52.192;5.396;2023-02-01T04:07:05;101760.53;;;6.42;100.00
74125;BME280;62475;52.192;5.396;2023-02-01T04:09:30;101762.31;;;6.48;100.00
74125;BME280;62475;52.192;5.396;2023-02-01T04:11:55;101762.22;;;6.43;100.00
74125;BME280;62475;52.192;5.396;2023-02-01T04:14:20;101753.03;;;6.49;100.00
74125;BME280;62475;52.192;5.396;2023-02-01T04:16:45;101755.59;;;6.55;100.00
74125;BME280;62475;52.192;5.396;2023-02-01T04:19:11;101757.38;;;6.61;100.00
74125;BME280;62475;52.192;5.396;2023-02-01T04:21:36;101764.97;;;6.59;100.00
74125;BME280;62475;52.192;5.396;2023-02-01T04:24:01;101777.44;;;6.55;100.00
74125;BME280;62475;52.192;5.396;2023-02-01T04:26:27;101778.53;;;6.54;100.00
74125;BME280;62475;52.192;5.396;2023-02-01T04:28:52;101770.00;;;6.51;100.00
74125;BME280;62475;52.192;5.396;2023-02-01T04:31:18;101768.81;;;6.47;100.00
74125;BME280;62475;52.192;5.396;2023-02-01T04:33:50;101674.63;;;6.00;100.00
74125;BME280;62475;52.192;5.396;2023-02-01T04:36:18;101752.53;;;6.52;100.00
74125;BME280;62475;52.192;5.396;2023-02-01T04:38:45;101773.22;;;6.48;100.00
74125;BME280;62475;52.192;5.396;2023-02-01T04:41:14;101757.19;;;6.51;100.00
74125;BME280;62475;52.192;5.396;2023-02-01T04:43:39;101759.81;;;6.46;100.00
74125;BME280;62475;52.192;5.396;2023-02-01T04:46:04;101759.50;;;6.43;100.00
74125;BME280;62475;52.192;5.396;2023-02-01T04:48:30;101748.31;;;6.44;100.00
74125;BME280;62475;52.192;5.396;2023-02-01T04:50:55;101745.09;;;6.47;100.00
74125;BME280;62475;52.192;5.396;2023-02-01T04:53:20;101753.44;;;6.41;100.00
74125;BME280;62475;52.192;5.396;2023-02-01T04:55:47;101755.59;;;6.39;100.00
74125;BME280;62475;52.192;5.396;2023-02-01T04:58:12;101747.91;;;6.36;100.00
74125;BME280;62475;52.192;5.396;2023-02-01T05:00:38;101754.16;;;6.36;100.00
74125;BME280;62475;52.192;5.396;2023-02-01T05:03:03;101756.53;;;6.33;100.00
74125;BME280;62475;52.192;5.396;2023-02-01T05:05:28;101747.91;;;6.36;100.00
74125;BME280;62475;52.192;5.396;2023-02-01T05:07:54;101747.31;;;6.34;100.00
74125;BME280;62475;52.192;5.396;2023-02-01T05:10:19;101755.00;;;6.37;100.00
74125;BME280;62475;52.192;5.396;2023-02-01T05:12:44;101751.19;;;6.38;100.00
74125;BME280;62475;52.192;5.396;2023-02-01T05:15:28;101742.31;;;6.31;100.00
74125;BME280;62475;52.192;5.396;2023-02-01T05:17:54;101745.03;;;6.31;100.00
74125;BME280;62475;52.192;5.396;2023-02-01T05:20:19;101745.63;;;6.33;100.00
74125;BME280;62475;52.192;5.396;2023-02-01T05:22:44;101742.91;;;6.33;100.00
74125;BME280;62475;52.192;5.396;2023-02-01T05:25:10;101737.44;;;6.33;100.00
74125;BME280;62475;52.192;5.396;2023-02-01T05:27:35;101744.81;;;6.32;100.00
74125;BME280;62475;52.192;5.396;2023-02-01T05:30:00;101754.41;;;6.35;100.00
74125;BME280;62475;52.192;5.396;2023-02-01T05:32:27;101773.50;;;6.35;100.00
74125;BME280;62475;52.192;5.396;2023-02-01T05:34:52;101767.56;;;6.38;100.00
74125;BME280;62475;52.192;5.396;2023-02-01T05:37:17;101768.47;;;6.43;100.00
74125;BME280;62475;52.192;5.396;2023-02-01T05:39:42;101771.38;;;6.37;100.00
74125;BME280;62475;52.192;5.396;2023-02-01T05:42:08;101758.66;;;6.42;100.00
74125;BME280;62475;52.192;5.396;2023-02-01T05:44:37;101758.06;;;6.40;100.00
74125;BME280;62475;52.192;5.396;2023-02-01T05:47:02;101769.56;;;6.42;100.00
74125;BME280;62475;52.192;5.396;2023-02-01T05:49:27;101772.06;;;6.44;100.00
74125;BME280;62475;52.192;5.396;2023-02-01T05:51:52;101763.03;;;6.43;100.00
74125;BME280;62475;52.192;5.396;2023-02-01T05:54:24;101772.28;;;6.42;100.00
74125;BME280;62475;52.192;5.396;2023-02-01T05:56:49;101773.34;;;6.41;100.00
74125;BME280;62475;52.192;5.396;2023-02-01T05:59:14;101768.72;;;6.42;100.00
74125;BME280;62475;52.192;5.396;2023-02-01T06:01:39;101762.53;;;6.46;100.00
74125;BME280;62475;52.192;5.396;2023-02-01T06:04:05;101763.88;;;6.44;100.00
74125;BME280;62475;52.192;5.396;2023-02-01T06:06:30;101761.47;;;6.47;100.00
74125;BME280;62475;52.192;5.396;2023-02-01T06:08:55;101766.34;;;6.45;100.00
74125;BME280;62475;52.192;5.396;2023-02-01T06:11:20;101763.97;;;6.49;100.00
74125;BME280;62475;52.192;5.396;2023-02-01T06:13:46;101763.97;;;6.49;100.00
74125;BME280;62475;52.192;5.396;2023-02-01T06:16:11;101755.78;;;6.49;100.00
74125;BME280;62475;52.192;5.396;2023-02-01T06:18:36;101761.56;;;6.52;100.00
74125;BME280;62475;52.192;5.396;2023-02-01T06:21:02;101760.13;;;6.50;100.00
74125;BME280;62475;52.192;5.396;2023-02-01T06:23:28;101769.41;;;6.49;100.00
74125;BME280;62475;52.192;5.396;2023-02-01T06:26:04;101758.75;;;6.47;100.00
74125;BME280;62475;52.192;5.396;2023-02-01T06:28:30;101771.56;;;6.47;100.00
74125;BME280;62475;52.192;5.396;2023-02-01T06:30:56;101776.00;;;6.36;100.00
74125;BME280;62475;52.192;5.396;2023-02-01T06:33:22;101783.03;;;6.32;100.00
74125;BME280;62475;52.192;5.396;2023-02-01T06:35:48;101781.94;;;6.33;100.00
74125;BME280;62475;52.192;5.396;2023-02-01T06:38:13;101774.50;;;6.29;100.00
74125;BME280;62475;52.192;5.396;2023-02-01T06:40:39;101764.03;;;6.26;100.00
74125;BME280;62475;52.192;5.396;2023-02-01T06:43:04;101783.38;;;6.24;100.00
74125;BME280;62475;52.192;5.396;2023-02-01T06:45:33;101779.72;;;6.19;100.00
74125;BME280;62475;52.192;5.396;2023-02-01T06:47:58;101780.47;;;6.14;100.00
74125;BME280;62475;52.192;5.396;2023-02-01T06:50:24;101778.56;;;6.15;100.00
74125;BME280;62475;52.192;5.396;2023-02-01T06:52:50;101777.63;;;6.09;100.00
74125;BME280;62475;52.192;5.396;2023-02-01T06:55:15;101781.66;;;6.07;100.00
74125;BME280;62475;52.192;5.396;2023-02-01T06:57:40;101780.34;;;6.09;100.00
74125;BME280;62475;52.192;5.396;2023-02-01T07:00:06;101784.13;;;6.08;100.00
74125;BME280;62475;52.192;5.396;2023-02-01T07:02:31;101770.28;;;6.10;100.00
74125;BME280;62475;52.192;5.396;2023-02-01T07:04:56;101771.34;;;6.09;100.00
74125;BME280;62475;52.192;5.396;2023-02-01T07:07:21;101776.44;;;6.17;100.00
74125;BME280;62475;52.192;5.396;2023-02-01T07:09:48;101775.84;;;6.15;100.00
74125;BME280;62475;52.192;5.396;2023-02-01T07:12:13;101773.81;;;6.10;100.00
74125;BME280;62475;52.192;5.396;2023-02-01T07:14:39;101766.81;;;6.14;100.00
74125;BME280;62475;52.192;5.396;2023-02-01T07:17:04;101768.59;;;6.20;100.00
74125;BME280;62475;52.192;5.396;2023-02-01T07:19:29;101774.38;;;6.24;100.00
74125;BME280;62475;52.192;5.396;2023-02-01T07:21:54;101785.88;;;6.26;100.00
74125;BME280;62475;52.192;5.396;2023-02-01T07:24:19;101775.19;;;6.24;100.00
74125;BME280;62475;52.192;5.396;2023-02-01T07:26:45;101782.78;;;6.22;100.00
74125;BME280;62475;52.192;5.396;2023-02-01T07:29:12;101766.69;;;6.21;100.00
74125;BME280;62475;52.192;5.396;2023-02-01T07:31:37;101781.25;;;6.26;100.00
74125;BME280;62475;52.192;5.396;2023-02-01T07:34:03;101709.53;;;5.74;100.00
74125;BME280;62475;52.192;5.396;2023-02-01T07:36:28;101781.41;;;6.20;100.00
74125;BME280;62475;52.192;5.396;2023-02-01T07:38:53;101780.56;;;6.19;100.00
74125;BME280;62475;52.192;5.396;2023-02-01T07:41:19;101780.91;;;6.23;100.00
74125;BME280;62475;52.192;5.396;2023-02-01T07:43:45;101776.63;;;6.27;100.00
74125;BME280;62475;52.192;5.396;2023-02-01T07:46:10;101776.78;;;6.20;100.00
74125;BME280;62475;52.192;5.396;2023-02-01T07:48:36;101784.84;;;6.15;100.00
74125;BME280;62475;52.192;5.396;2023-02-01T07:51:02;101781.66;;;6.18;100.00
74125;BME280;62475;52.192;5.396;2023-02-01T07:53:28;101789.00;;;6.18;100.00
74125;BME280;62475;52.192;5.396;2023-02-01T07:55:53;101795.28;;;6.18;100.00
74125;BME280;62475;52.192;5.396;2023-02-01T07:58:21;101785.44;;;6.17;100.00
74125;BME280;62475;52.192;5.396;2023-02-01T08:00:46;101789.47;;;6.15;100.00
74125;BME280;62475;52.192;5.396;2023-02-01T08:03:30;101797.88;;;6.25;100.00
74125;BME280;62475;52.192;5.396;2023-02-01T08:05:55;101796.44;;;6.22;100.00
74125;BME280;62475;52.192;5.396;2023-02-01T08:08:20;101806.53;;;6.22;100.00
74125;BME280;62475;52.192;5.396;2023-02-01T08:10:46;101800.59;;;6.25;100.00
74125;BME280;62475;52.192;5.396;2023-02-01T08:13:11;101803.91;;;6.27;100.00
74125;BME280;62475;52.192;5.396;2023-02-01T08:15:36;101785.28;;;6.24;100.00
74125;BME280;62475;52.192;5.396;2023-02-01T08:18:02;101789.03;;;6.34;100.00
74125;BME280;62475;52.192;5.396;2023-02-01T08:20:27;101791.06;;;6.39;100.00
74125;BME280;62475;52.192;5.396;2023-02-01T08:22:53;101779.16;;;6.45;100.00
74125;BME280;62475;52.192;5.396;2023-02-01T08:25:18;101783.91;;;6.49;100.00
74125;BME280;62475;52.192;5.396;2023-02-01T08:27:43;101784.41;;;6.63;100.00
74125;BME280;62475;52.192;5.396;2023-02-01T08:30:09;101782.78;;;6.62;100.00
74125;BME280;62475;52.192;5.396;2023-02-01T08:32:35;101774.91;;;6.65;100.00
74125;BME280;62475;52.192;5.396;2023-02-01T08:35:00;101771.03;;;6.61;100.00
74125;BME280;62475;52.192;5.396;2023-02-01T08:37:25;101783.25;;;6.59;100.00
74125;BME280;62475;52.192;5.396;2023-02-01T08:39:51;101773.91;;;6.55;100.00
74125;BME280;62475;52.192;5.396;2023-02-01T08:42:16;101783.50;;;6.57;100.00
74125;BME280;62475;52.192;5.396;2023-02-01T08:45:01;101779.47;;;6.60;100.00
74125;BME280;62475;52.192;5.396;2023-02-01T08:47:27;101785.16;;;6.58;100.00
74125;BME280;62475;52.192;5.396;2023-02-01T08:49:53;101784.41;;;6.63;100.00
74125;BME280;62475;52.192;5.396;2023-02-01T08:52:18;101780.25;;;6.60;100.00
74125;BME280;62475;52.192;5.396;2023-02-01T08:54:44;101781.78;;;6.68;100.00
74125;BME280;62475;52.192;5.396;2023-02-01T08:57:09;101784.94;;;6.76;100.00
74125;BME280;62475;52.192;5.396;2023-02-01T08:59:37;101771.47;;;6.86;100.00
74125;BME280;62475;52.192;5.396;2023-02-01T09:02:02;101772.03;;;6.88;100.00
74125;BME280;62475;52.192;5.396;2023-02-01T09:04:27;101769.13;;;6.95;100.00
74125;BME280;62475;52.192;5.396;2023-02-01T09:06:53;101764.03;;;7.15;100.00
74125;BME280;62475;52.192;5.396;2023-02-01T09:09:20;101766.66;;;7.43;100.00
74125;BME280;62475;52.192;5.396;2023-02-01T09:11:45;101766.22;;;7.68;100.00
74125;BME280;62475;52.192;5.396;2023-02-01T09:14:10;101773.44;;;7.57;100.00
74125;BME280;62475;52.192;5.396;2023-02-01T09:16:36;101762.13;;;7.70;100.00
74125;BME280;62475;52.192;5.396;2023-02-01T09:19:01;101760.47;;;7.69;100.00
74125;BME280;62475;52.192;5.396;2023-02-01T09:21:26;101749.91;;;7.56;100.00
74125;BME280;62475;52.192;5.396;2023-02-01T09:23:51;101757.38;;;7.44;100.00
74125;BME280;62475;52.192;5.396;2023-02-01T09:26:17;101764.50;;;7.45;100.00
74125;BME280;62475;52.192;5.396;2023-02-01T09:28:42;101760.28;;;7.38;100.00
74125;BME280;62475;52.192;5.396;2023-02-01T09:31:07;101765.44;;;7.34;100.00
74125;BME280;62475;52.192;5.396;2023-02-01T09:33:32;101780.47;;;7.37;100.00
74125;BME280;62475;52.192;5.396;2023-02-01T09:35:58;101786.19;;;7.35;100.00
74125;BME280;62475;52.192;5.396;2023-02-01T09:38:24;101779.94;;;7.35;100.00
74125;BME280;62475;52.192;5.396;2023-02-01T09:40:50;101772.22;;;7.32;100.00
74125;BME280;62475;52.192;5.396;2023-02-01T09:46:13;101756.97;;;7.36;100.00
74125;BME280;62475;52.192;5.396;2023-02-01T09:48:41;101763.75;;;7.33;100.00
74125;BME280;62475;52.192;5.396;2023-02-01T09:51:19;101762.69;;;7.34;100.00
74125;BME280;62475;52.192;5.396;2023-02-01T09:53:48;101764.84;;;7.32;100.00
74125;BME280;62475;52.192;5.396;2023-02-01T09:56:23;101748.69;;;7.31;100.00
74125;BME280;62475;52.192;5.396;2023-02-01T09:59:01;101762.88;;;7.28;100.00
74125;BME280;62475;52.192;5.396;2023-02-01T10:01:29;101752.19;;;7.26;100.00
74125;BME280;62475;52.192;5.396;2023-02-01T10:04:07;101750.59;;;7.30;100.00
74125;BME280;62475;52.192;5.396;2023-02-01T10:09:23;101755.66;;;7.22;100.00
74125;BME280;62475;52.192;5.396;2023-02-01T10:12:10;101755.59;;;7.17;100.00
74125;BME280;62475;52.192;5.396;2023-02-01T10:17:18;101758.06;;;7.02;100.00
74125;BME280;62475;52.192;5.396;2023-02-01T10:22:14;101761.97;;;6.89;100.00
74125;BME280;62475;52.192;5.396;2023-02-01T10:24:49;101770.44;;;6.76;100.00
74125;BME280;62475;52.192;5.396;2023-02-01T10:27:27;101775.72;;;6.66;100.00
74125;BME280;62475;52.192;5.396;2023-02-01T10:29:58;101763.66;;;6.62;100.00
74125;BME280;62475;52.192;5.396;2023-02-01T10:32:33;101766.41;;;6.62;100.00
74125;BME280;62475;52.192;5.396;2023-02-01T10:35:08;101761.75;;;6.62;100.00
74125;BME280;62475;52.192;5.396;2023-02-01T10:37:35;101766.16;;;6.63;100.00
74125;BME280;62475;52.192;5.396;2023-02-01T10:40:16;101762.66;;;6.68;100.00
74125;BME280;62475;52.192;5.396;2023-02-01T10:42:42;101749.59;;;6.70;100.00
74125;BME280;62475;52.192;5.396;2023-02-01T10:45:11;101744.47;;;6.73;100.00
74125;BME280;62475;52.192;5.396;2023-02-01T10:47:38;101748.47;;;6.82;100.00
74125;BME280;62475;52.192;5.396;2023-02-01T10:50:17;101745.50;;;6.84;100.00
74125;BME280;62475;52.192;5.396;2023-02-01T10:52:51;101746.41;;;6.89;100.00
74125;BME280;62475;52.192;5.396;2023-02-01T10:55:25;101743.19;;;6.93;100.00
74125;BME280;62475;52.192;5.396;2023-02-01T10:58:01;101743.41;;;7.08;100.00
74125;BME280;62475;52.192;5.396;2023-02-01T11:00:27;101735.88;;;7.15;100.00
74125;BME280;62475;52.192;5.396;2023-02-01T11:02:53;101726.78;;;7.26;100.00
74125;BME280;62475;52.192;5.396;2023-02-01T11:05:18;101732.81;;;7.28;100.00
74125;BME280;62475;52.192;5.396;2023-02-01T11:08:02;101724.09;;;7.31;100.00
74125;BME280;62475;52.192;5.396;2023-02-01T11:10:40;101725.41;;;7.28;100.00
74125;BME280;62475;52.192;5.396;2023-02-01T11:13:15;101729.50;;;7.26;100.00
74125;BME280;62475;52.192;5.396;2023-02-01T11:15:54;101725.03;;;7.20;100.00
74125;BME280;62475;52.192;5.396;2023-02-01T11:18:21;101716.50;;;7.16;100.00
74125;BME280;62475;52.192;5.396;2023-02-01T11:20:51;101720.91;;;7.17;100.00
74125;BME280;62475;52.192;5.396;2023-02-01T11:23:18;101723.72;;;7.22;100.00
74125;BME280;62475;52.192;5.396;2023-02-01T11:25:52;101731.13;;;7.27;100.00
74125;BME280;62475;52.192;5.396;2023-02-01T11:28:18;101748.69;;;7.31;100.00
74125;BME280;62475;52.192;5.396;2023-02-01T11:30:45;101726.59;;;7.32;100.00
74125;BME280;62475;52.192;5.396;2023-02-01T11:33:18;101722.88;;;7.38;100.00
74125;BME280;62475;52.192;5.396;2023-02-01T11:35:44;101728.97;;;7.45;100.00
74125;BME280;62475;52.192;5.396;2023-02-01T11:38:18;101727.03;;;7.62;100.00
74125;BME280;62475;52.192;5.396;2023-02-01T11:40:45;101725.34;;;7.61;100.00
74125;BME280;62475;52.192;5.396;2023-02-01T11:43:22;101714.94;;;7.58;100.00
74125;BME280;62475;52.192;5.396;2023-02-01T11:45:56;101728.03;;;7.56;100.00
74125;BME280;62475;52.192;5.396;2023-02-01T11:48:21;101711.38;;;7.58;100.00
74125;BME280;62475;52.192;5.396;2023-02-01T12:01:20;101714.00;;;7.69;100.00
74125;BME280;62475;52.192;5.396;2023-02-01T12:09:12;101692.81;;;7.81;100.00
74125;BME280;62475;52.192;5.396;2023-02-01T12:19:38;101693.81;;;7.97;100.00
74125;BME280;62475;52.192;5.396;2023-02-01T12:24:50;101696.78;;;7.90;100.00
74125;BME280;62475;52.192;5.396;2023-02-01T12:27:35;101690.72;;;7.88;100.00
74125;BME280;62475;52.192;5.396;2023-02-01T12:37:52;101692.81;;;7.81;100.00
74125;BME280;62475;52.192;5.396;2023-02-01T12:43:07;101698.88;;;7.83;100.00
74125;BME280;62475;52.192;5.396;2023-02-01T12:50:50;101692.50;;;7.78;100.00
74125;BME280;62475;52.192;5.396;2023-02-01T12:55:58;101709.41;;;7.75;100.00
74125;BME280;62475;52.192;5.396;2023-02-01T12:58:40;101702.28;;;7.74;100.00
74125;BME280;62475;52.192;5.396;2023-02-01T13:06:57;101615.56;;;7.26;100.00
74125;BME280;62475;52.192;5.396;2023-02-01T13:12:24;101699.63;;;7.79;100.00
74125;BME280;62475;52.192;5.396;2023-02-01T13:17:23;101711.13;;;7.81;100.00
74125;BME280;62475;52.192;5.396;2023-02-01T13:22:31;101712.53;;;7.83;100.00
74125;BME280;62475;52.192;5.396;2023-02-01T13:25:11;101696.03;;;7.78;100.00
74125;BME280;62475;52.192;5.396;2023-02-01T13:27:38;101713.53;;;7.77;100.00
74125;BME280;62475;52.192;5.396;2023-02-01T13:32:42;101704.25;;;7.78;100.00
74125;BME280;62475;52.192;5.396;2023-02-01T13:40:22;101705.19;;;7.89;100.00
74125;BME280;62475;52.192;5.396;2023-02-01T13:42:52;101702.25;;;7.90;100.00
74125;BME280;62475;52.192;5.396;2023-02-01T13:46:05;101717.28;;;7.93;100.00
74125;BME280;62475;52.192;5.396;2023-02-01T13:48:05;101705.84;;;7.96;100.00
74125;BME280;62475;52.192;5.396;2023-02-01T13:50:36;101710.28;;;8.02;100.00
74125;BME280;62475;52.192;5.396;2023-02-01T13:55:38;101709.56;;;8.12;100.00
74125;BME280;62475;52.192;5.396;2023-02-01T13:58:14;101707.06;;;8.27;100.00
74125;BME280;62475;52.192;5.396;2023-02-01T14:00:41;101690.06;;;8.25;100.00
74125;BME280;62475;52.192;5.396;2023-02-01T14:03:13;101697.22;;;8.31;100.00
74125;BME280;62475;52.192;5.396;2023-02-01T14:23:43;101715.88;;;8.12;100.00
74125;BME280;62475;52.192;5.396;2023-02-01T14:26:10;101711.75;;;8.10;100.00
74125;BME280;62475;52.192;5.396;2023-02-01T14:28:39;101696.72;;;8.12;100.00
74125;BME280;62475;52.192;5.396;2023-02-01T14:31:13;101703.03;;;8.13;100.00
74125;BME280;62475;52.192;5.396;2023-02-01T14:33:40;101690.69;;;8.10;100.00
74125;BME280;62475;52.192;5.396;2023-02-01T14:36:10;101708.44;;;8.07;100.00
74125;BME280;62475;52.192;5.396;2023-02-01T14:38:37;101700.81;;;8.10;100.00
74125;BME280;62475;52.192;5.396;2023-02-01T14:49:14;101713.59;;;8.04;100.00
74125;BME280;62475;52.192;5.396;2023-02-01T14:51:40;101712.13;;;7.96;100.00
74125;BME280;62475;52.192;5.396;2023-02-01T14:54:06;101736.06;;;7.84;100.00
74125;BME280;62475;52.192;5.396;2023-02-01T14:56:33;101713.72;;;7.49;100.00
74125;BME280;62475;52.192;5.396;2023-02-01T14:59:09;101728.41;;;7.43;100.00
74125;BME280;62475;52.192;5.396;2023-02-01T15:01:38;101739.00;;;7.40;100.00
74125;BME280;62475;52.192;5.396;2023-02-01T15:04:05;101741.00;;;7.28;100.00
74125;BME280;62475;52.192;5.396;2023-02-01T15:06:32;101731.72;;;7.29;100.00
74125;BME280;62475;52.192;5.396;2023-02-01T15:08:59;101749.53;;;7.31;100.00
74125;BME280;62475;52.192;5.396;2023-02-01T15:11:25;101735.94;;;7.20;100.00
74125;BME280;62475;52.192;5.396;2023-02-01T15:13:51;101711.03;;;7.33;100.00
74125;BME280;62475;52.192;5.396;2023-02-01T15:16:19;101742.97;;;7.49;100.00
74125;BME280;62475;52.192;5.396;2023-02-01T15:18:45;101744.16;;;7.58;100.00
74125;BME280;62475;52.192;5.396;2023-02-01T15:21:28;101743.09;;;7.59;100.00